Terminal Aerodrome Forecast
Issued by NWS Charleston, WV

Current Version | Previous Version | Text Only | Print | Product List | Glossary Off
Versions: 1 2 3 4 5 6 7 8 9 10 11 12 13 14 15 16 17 18 19 20 21 22 23 24 25 26

536
FTUS41 KRLX 211735
TAFPKB
TAF
KPKB 211735Z 2118/2218 00000KT P6SM FEW040 OVC200
     FM220100 00000KT P6SM OVC090
     FM221700 10005KT 6SM -RA OVC050=

USA.gov is the U.S. government's official web portal to all federal, state and local government web resources and services.